sensor_id;sensor_type;location;lat;lon;timestamp;pressure;altitude;pressure_sealevel;temperature;humidity
39681;BME280;26327;42.550;23.120;2023-06-19T06:13:50;92917.44;;;17.50;100.00
39681;BME280;26327;42.550;23.120;2023-06-19T06:16:16;92907.81;;;17.25;100.00
39681;BME280;26327;42.550;23.120;2023-06-19T06:18:41;92923.66;;;17.55;100.00
39681;BME280;26327;42.550;23.120;2023-06-19T06:21:07;92969.84;;;18.00;100.00
39681;BME280;26327;42.550;23.120;2023-06-19T06:23:33;92927.00;;;18.11;100.00
39681;BME280;26327;42.550;23.120;2023-06-19T06:25:58;92931.13;;;18.07;100.00
39681;BME280;26327;42.550;23.120;2023-06-19T06:28:27;92918.94;;;18.36;100.00
39681;BME280;26327;42.550;23.120;2023-06-19T06:30:54;92984.56;;;18.49;100.00
39681;BME280;26327;42.550;23.120;2023-06-19T06:33:19;92924.16;;;17.82;100.00
39681;BME280;26327;42.550;23.120;2023-06-19T06:35:45;92995.72;;;18.44;100.00
39681;BME280;26327;42.550;23.120;2023-06-19T06:38:10;92985.25;;;18.26;100.00
39681;BME280;26327;42.550;23.120;2023-06-19T06:40:36;92982.16;;;18.47;100.00
39681;BME280;26327;42.550;23.120;2023-06-19T06:43:01;92951.66;;;18.28;100.00
39681;BME280;26327;42.550;23.120;2023-06-19T06:45:27;92934.44;;;18.55;100.00
39681;BME280;26327;42.550;23.120;2023-06-19T06:47:52;92938.28;;;18.83;100.00
39681;BME280;26327;42.550;23.120;2023-06-19T06:50:18;92997.97;;;19.01;100.00
39681;BME280;26327;42.550;23.120;2023-06-19T06:52:43;92997.16;;;19.00;100.00
39681;BME280;26327;42.550;23.120;2023-06-19T06:55:08;92924.88;;;18.73;100.00
39681;BME280;26327;42.550;23.120;2023-06-19T06:57:34;92985.72;;;19.41;100.00
39681;BME280;26327;42.550;23.120;2023-06-19T07:00:00;92978.63;;;19.54;100.00
39681;BME280;26327;42.550;23.120;2023-06-19T07:02:25;92927.06;;;19.34;100.00
39681;BME280;26327;42.550;23.120;2023-06-19T07:04:51;92916.28;;;19.36;100.00
39681;BME280;26327;42.550;23.120;2023-06-19T07:07:17;92997.53;;;19.62;100.00
39681;BME280;26327;42.550;23.120;2023-06-19T07:09:42;92959.38;;;19.53;100.00
39681;BME280;26327;42.550;23.120;2023-06-19T07:12:08;92947.09;;;19.59;100.00
39681;BME280;26327;42.550;23.120;2023-06-19T07:14:33;92957.06;;;19.68;100.00
39681;BME280;26327;42.550;23.120;2023-06-19T07:16:59;92988.91;;;20.19;100.00
39681;BME280;26327;42.550;23.120;2023-06-19T07:19:24;92999.44;;;20.19;99.83
39681;BME280;26327;42.550;23.120;2023-06-19T07:21:50;92941.13;;;20.03;99.25
39681;BME280;26327;42.550;23.120;2023-06-19T07:24:16;93000.69;;;20.28;99.11
39681;BME280;26327;42.550;23.120;2023-06-19T07:26:41;92957.00;;;20.20;98.88
39681;BME280;26327;42.550;23.120;2023-06-19T07:29:07;92994.38;;;21.02;96.47
39681;BME280;26327;42.550;23.120;2023-06-19T07:31:32;93007.09;;;21.05;97.57
39681;BME280;26327;42.550;23.120;2023-06-19T07:33:57;92920.38;;;20.35;98.69
39681;BME280;26327;42.550;23.120;2023-06-19T07:36:23;92989.91;;;20.58;99.16
39681;BME280;26327;42.550;23.120;2023-06-19T07:38:48;92950.53;;;20.39;98.57
39681;BME280;26327;42.550;23.120;2023-06-19T07:41:13;93005.59;;;20.93;97.03
39681;BME280;26327;42.550;23.120;2023-06-19T07:43:39;92958.81;;;20.60;96.05
39681;BME280;26327;42.550;23.120;2023-06-19T07:46:04;92995.56;;;20.95;94.36
39681;BME280;26327;42.550;23.120;2023-06-19T07:48:30;93018.22;;;20.91;95.92
39681;BME280;26327;42.550;23.120;2023-06-19T07:50:55;92957.69;;;20.72;93.76
39681;BME280;26327;42.550;23.120;2023-06-19T07:53:21;92937.69;;;21.27;93.32
39681;BME280;26327;42.550;23.120;2023-06-19T07:55:46;92970.13;;;21.05;93.67
39681;BME280;26327;42.550;23.120;2023-06-19T07:58:12;92911.06;;;20.33;93.48
39681;BME280;26327;42.550;23.120;2023-06-19T08:00:37;92946.81;;;21.02;92.47
39681;BME280;26327;42.550;23.120;2023-06-19T08:03:03;92954.25;;;21.22;92.76
39681;BME280;26327;42.550;23.120;2023-06-19T08:05:28;92957.66;;;21.34;94.02
39681;BME280;26327;42.550;23.120;2023-06-19T08:07:53;92973.38;;;21.13;94.95
39681;BME280;26327;42.550;23.120;2023-06-19T08:10:19;92988.94;;;21.26;94.27
39681;BME280;26327;42.550;23.120;2023-06-19T08:12:45;92964.13;;;21.27;91.99
39681;BME280;26327;42.550;23.120;2023-06-19T08:15:11;93021.53;;;21.48;91.97
39681;BME280;26327;42.550;23.120;2023-06-19T08:17:39;93003.16;;;21.58;93.11
39681;BME280;26327;42.550;23.120;2023-06-19T08:20:05;93015.44;;;22.03;89.10
39681;BME280;26327;42.550;23.120;2023-06-19T08:22:31;92969.81;;;21.35;91.89
39681;BME280;26327;42.550;23.120;2023-06-19T08:24:56;93008.44;;;21.97;90.56
39681;BME280;26327;42.550;23.120;2023-06-19T08:27:21;92987.66;;;21.84;88.67
39681;BME280;26327;42.550;23.120;2023-06-19T08:29:47;92907.06;;;21.48;87.65
39681;BME280;26327;42.550;23.120;2023-06-19T08:32:12;92962.97;;;22.00;85.26
39681;BME280;26327;42.550;23.120;2023-06-19T08:34:38;92985.69;;;22.18;86.50
39681;BME280;26327;42.550;23.120;2023-06-19T08:37:05;92956.09;;;21.99;84.69
39681;BME280;26327;42.550;23.120;2023-06-19T08:39:31;92958.97;;;21.76;89.27
39681;BME280;26327;42.550;23.120;2023-06-19T08:41:57;92965.72;;;22.05;88.07
39681;BME280;26327;42.550;23.120;2023-06-19T08:44:22;93002.38;;;22.40;87.60
39681;BME280;26327;42.550;23.120;2023-06-19T08:46:47;93017.50;;;22.45;85.90
39681;BME280;26327;42.550;23.120;2023-06-19T08:49:13;92943.66;;;22.21;87.03
39681;BME280;26327;42.550;23.120;2023-06-19T08:51:40;92953.47;;;22.48;83.67
39681;BME280;26327;42.550;23.120;2023-06-19T08:54:07;92948.53;;;22.29;82.22
39681;BME280;26327;42.550;23.120;2023-06-19T08:56:34;93007.13;;;23.19;76.78
39681;BME280;26327;42.550;23.120;2023-06-19T08:59:17;93006.41;;;22.97;76.07
39681;BME280;26327;42.550;23.120;2023-06-19T09:01:53;93016.97;;;22.91;75.73
39681;BME280;26327;42.550;23.120;2023-06-19T09:04:26;92948.78;;;22.55;77.54
39681;BME280;26327;42.550;23.120;2023-06-19T09:06:57;93006.63;;;23.59;72.42
39681;BME280;26327;42.550;23.120;2023-06-19T09:09:24;92999.19;;;23.19;75.04
39681;BME280;26327;42.550;23.120;2023-06-19T09:14:35;93008.91;;;23.77;73.64
39681;BME280;26327;42.550;23.120;2023-06-19T09:17:04;93009.47;;;23.47;75.23
39681;BME280;26327;42.550;23.120;2023-06-19T09:19:30;93013.06;;;23.31;74.08
39681;BME280;26327;42.550;23.120;2023-06-19T09:22:04;93004.63;;;23.07;68.76
39681;BME280;26327;42.550;23.120;2023-06-19T09:24:38;92956.06;;;23.71;66.93
39681;BME280;26327;42.550;23.120;2023-06-19T09:27:14;92992.88;;;23.62;68.27
39681;BME280;26327;42.550;23.120;2023-06-19T09:29:40;92993.22;;;23.76;70.20
39681;BME280;26327;42.550;23.120;2023-06-19T09:34:41;92934.84;;;23.29;69.59
39681;BME280;26327;42.550;23.120;2023-06-19T09:37:06;92993.88;;;24.03;68.86
39681;BME280;26327;42.550;23.120;2023-06-19T09:39:34;92938.84;;;23.36;68.54
39681;BME280;26327;42.550;23.120;2023-06-19T09:42:01;92957.03;;;23.60;68.82
39681;BME280;26327;42.550;23.120;2023-06-19T09:44:31;92964.91;;;23.49;67.96
39681;BME280;26327;42.550;23.120;2023-06-19T09:46:58;92947.41;;;23.48;65.28
39681;BME280;26327;42.550;23.120;2023-06-19T09:49:26;92952.63;;;23.75;65.97
39681;BME280;26327;42.550;23.120;2023-06-19T09:51:54;92943.97;;;23.48;68.85
39681;BME280;26327;42.550;23.120;2023-06-19T09:54:20;92934.63;;;23.40;68.31
39681;BME280;26327;42.550;23.120;2023-06-19T09:56:47;92995.97;;;23.96;66.63
39681;BME280;26327;42.550;23.120;2023-06-19T09:59:17;92968.09;;;23.89;67.48
39681;BME280;26327;42.550;23.120;2023-06-19T10:01:42;92931.16;;;23.77;66.29
39681;BME280;26327;42.550;23.120;2023-06-19T10:04:08;92987.63;;;24.25;65.36
39681;BME280;26327;42.550;23.120;2023-06-19T10:06:43;92935.41;;;23.78;65.04
39681;BME280;26327;42.550;23.120;2023-06-19T10:09:09;92910.72;;;23.77;67.11
39681;BME280;26327;42.550;23.120;2023-06-19T10:11:49;92968.53;;;23.70;65.19
39681;BME280;26327;42.550;23.120;2023-06-19T10:14:19;92949.03;;;24.02;66.44
39681;BME280;26327;42.550;23.120;2023-06-19T10:16:45;92917.31;;;24.42;66.37
39681;BME280;26327;42.550;23.120;2023-06-19T10:19:20;92976.09;;;24.87;65.02
39681;BME280;26327;42.550;23.120;2023-06-19T10:21:52;92956.44;;;24.83;64.99
39681;BME280;26327;42.550;23.120;2023-06-19T10:24:19;92927.22;;;24.72;63.58
39681;BME280;26327;42.550;23.120;2023-06-19T10:27:01;92979.00;;;23.97;65.80
39681;BME280;26327;42.550;23.120;2023-06-19T10:29:38;92978.16;;;24.44;63.77
39681;BME280;26327;42.550;23.120;2023-06-19T10:32:03;92897.94;;;24.42;67.00
39681;BME280;26327;42.550;23.120;2023-06-19T10:34:35;92969.50;;;25.04;66.58
39681;BME280;26327;42.550;23.120;2023-06-19T10:37:01;92983.59;;;25.05;64.88
39681;BME280;26327;42.550;23.120;2023-06-19T10:39:27;92972.13;;;24.79;68.46
39681;BME280;26327;42.550;23.120;2023-06-19T10:41:52;92968.66;;;24.84;67.34
39681;BME280;26327;42.550;23.120;2023-06-19T10:44:17;92961.47;;;24.79;67.41
39681;BME280;26327;42.550;23.120;2023-06-19T10:46:43;92962.81;;;24.66;64.07
39681;BME280;26327;42.550;23.120;2023-06-19T10:49:10;92967.84;;;24.63;67.03
39681;BME280;26327;42.550;23.120;2023-06-19T10:51:37;92977.84;;;24.35;65.80
39681;BME280;26327;42.550;23.120;2023-06-19T10:54:03;92974.44;;;24.45;67.25
39681;BME280;26327;42.550;23.120;2023-06-19T10:56:28;92901.53;;;24.05;63.97
39681;BME280;26327;42.550;23.120;2023-06-19T10:59:01;92913.59;;;24.38;65.75
39681;BME280;26327;42.550;23.120;2023-06-19T11:01:35;92952.44;;;24.75;68.60
39681;BME280;26327;42.550;23.120;2023-06-19T11:04:09;92960.97;;;24.82;65.42
39681;BME280;26327;42.550;23.120;2023-06-19T11:06:36;92967.81;;;24.53;60.14
39681;BME280;26327;42.550;23.120;2023-06-19T11:09:03;92899.53;;;24.48;56.18
39681;BME280;26327;42.550;23.120;2023-06-19T11:11:41;92879.81;;;24.18;59.87
39681;BME280;26327;42.550;23.120;2023-06-19T11:14:07;92958.06;;;24.99;60.32
39681;BME280;26327;42.550;23.120;2023-06-19T11:16:34;92946.28;;;24.54;60.92
39681;BME280;26327;42.550;23.120;2023-06-19T11:19:00;92954.59;;;25.03;62.30
39681;BME280;26327;42.550;23.120;2023-06-19T11:21:33;92954.59;;;25.39;57.48
39681;BME280;26327;42.550;23.120;2023-06-19T11:24:04;92950.59;;;25.57;60.21
39681;BME280;26327;42.550;23.120;2023-06-19T11:26:35;92878.84;;;24.65;61.04
39681;BME280;26327;42.550;23.120;2023-06-19T11:29:01;92947.94;;;24.91;61.86
39681;BME280;26327;42.550;23.120;2023-06-19T11:31:27;92887.25;;;24.27;61.47
39681;BME280;26327;42.550;23.120;2023-06-19T11:33:59;92949.47;;;24.46;61.68
39681;BME280;26327;42.550;23.120;2023-06-19T11:36:24;92956.19;;;24.94;59.51
39681;BME280;26327;42.550;23.120;2023-06-19T11:38:52;92913.94;;;25.03;60.16
39681;BME280;26327;42.550;23.120;2023-06-19T11:41:28;92836.81;;;24.27;63.14
39681;BME280;26327;42.550;23.120;2023-06-19T11:44:07;92940.78;;;25.32;63.00
39681;BME280;26327;42.550;23.120;2023-06-19T11:46:34;92886.03;;;24.60;61.24
39681;BME280;26327;42.550;23.120;2023-06-19T11:51:35;92893.69;;;24.51;57.21
39681;BME280;26327;42.550;23.120;2023-06-19T11:54:01;92948.75;;;25.27;62.38
39681;BME280;26327;42.550;23.120;2023-06-19T11:56:27;92940.25;;;25.20;61.62
39681;BME280;26327;42.550;23.120;2023-06-19T11:58:52;92889.22;;;24.62;58.15
39681;BME280;26327;42.550;23.120;2023-06-19T12:01:17;92943.41;;;24.71;64.88
39681;BME280;26327;42.550;23.120;2023-06-19T12:03:43;92938.38;;;24.85;61.13
39681;BME280;26327;42.550;23.120;2023-06-19T12:06:08;92894.53;;;24.62;60.49
39681;BME280;26327;42.550;23.120;2023-06-19T12:08:34;92889.72;;;24.94;59.14
39681;BME280;26327;42.550;23.120;2023-06-19T12:11:02;92944.50;;;25.05;61.89
39681;BME280;26327;42.550;23.120;2023-06-19T12:13:28;92913.66;;;25.04;61.30
39681;BME280;26327;42.550;23.120;2023-06-19T12:15:53;92891.59;;;24.68;62.34
39681;BME280;26327;42.550;23.120;2023-06-19T12:18:19;92880.97;;;25.04;61.14
39681;BME280;26327;42.550;23.120;2023-06-19T12:20:44;92845.09;;;24.66;60.25
39681;BME280;26327;42.550;23.120;2023-06-19T12:23:09;92922.69;;;24.93;58.55
39681;BME280;26327;42.550;23.120;2023-06-19T12:25:35;92939.72;;;25.23;60.75
39681;BME280;26327;42.550;23.120;2023-06-19T12:28:00;92938.56;;;24.47;59.69
39681;BME280;26327;42.550;23.120;2023-06-19T12:30:26;92868.72;;;24.42;60.11
39681;BME280;26327;42.550;23.120;2023-06-19T12:32:51;92932.56;;;25.08;62.50
39681;BME280;26327;42.550;23.120;2023-06-19T12:35:17;92929.63;;;25.20;62.29
39681;BME280;26327;42.550;23.120;2023-06-19T12:37:43;92917.94;;;25.10;60.92
39681;BME280;26327;42.550;23.120;2023-06-19T12:40:09;92922.97;;;25.27;59.79
39681;BME280;26327;42.550;23.120;2023-06-19T12:42:36;92917.09;;;25.40;59.94
39681;BME280;26327;42.550;23.120;2023-06-19T12:45:02;92920.53;;;25.66;61.86
39681;BME280;26327;42.550;23.120;2023-06-19T12:47:28;92881.22;;;24.92;60.86
39681;BME280;26327;42.550;23.120;2023-06-19T12:49:53;92922.56;;;25.90;58.42
39681;BME280;26327;42.550;23.120;2023-06-19T12:52:19;92925.31;;;25.64;59.32
39681;BME280;26327;42.550;23.120;2023-06-19T12:54:44;92877.25;;;25.00;61.17
39681;BME280;26327;42.550;23.120;2023-06-19T12:57:10;92940.78;;;25.01;61.01
39681;BME280;26327;42.550;23.120;2023-06-19T12:59:35;92931.69;;;25.48;59.46
39681;BME280;26327;42.550;23.120;2023-06-19T13:02:00;92854.38;;;24.94;61.13
39681;BME280;26327;42.550;23.120;2023-06-19T13:04:26;92848.53;;;25.17;63.30
39681;BME280;26327;42.550;23.120;2023-06-19T13:06:51;92878.50;;;25.48;63.97
39681;BME280;26327;42.550;23.120;2023-06-19T13:09:16;92901.16;;;25.30;62.99
39681;BME280;26327;42.550;23.120;2023-06-19T13:11:42;92872.72;;;24.90;63.01
39681;BME280;26327;42.550;23.120;2023-06-19T13:14:07;92928.00;;;24.78;64.68
39681;BME280;26327;42.550;23.120;2023-06-19T13:16:33;92896.38;;;25.02;64.12
39681;BME280;26327;42.550;23.120;2023-06-19T13:18:58;92928.84;;;25.14;63.97
39681;BME280;26327;42.550;23.120;2023-06-19T13:21:23;92930.91;;;24.66;64.05
39681;BME280;26327;42.550;23.120;2023-06-19T13:23:49;92872.22;;;24.68;64.89
39681;BME280;26327;42.550;23.120;2023-06-19T13:26:14;92835.78;;;24.53;64.23
39681;BME280;26327;42.550;23.120;2023-06-19T13:28:40;92936.78;;;24.94;60.83
39681;BME280;26327;42.550;23.120;2023-06-19T13:31:05;92930.69;;;25.29;61.93
39681;BME280;26327;42.550;23.120;2023-06-19T13:33:31;92848.28;;;24.88;58.88
39681;BME280;26327;42.550;23.120;2023-06-19T13:35:56;92865.00;;;25.24;60.62
39681;BME280;26327;42.550;23.120;2023-06-19T13:38:21;92924.59;;;25.08;64.46
39681;BME280;26327;42.550;23.120;2023-06-19T13:40:47;92915.50;;;24.84;65.54
39681;BME280;26327;42.550;23.120;2023-06-19T13:43:13;92916.31;;;24.89;63.42
39681;BME280;26327;42.550;23.120;2023-06-19T13:45:40;92872.97;;;24.53;61.97
39681;BME280;26327;42.550;23.120;2023-06-19T13:48:05;92891.59;;;25.04;63.03
39681;BME280;26327;42.550;23.120;2023-06-19T13:50:31;92880.69;;;24.75;60.43
39681;BME280;26327;42.550;23.120;2023-06-19T13:52:58;92915.50;;;24.94;60.44
39681;BME280;26327;42.550;23.120;2023-06-19T13:55:23;92816.91;;;24.24;59.26
39681;BME280;26327;42.550;23.120;2023-06-19T13:57:49;92857.59;;;24.80;59.22
39681;BME280;26327;42.550;23.120;2023-06-19T14:00:14;92858.66;;;24.64;59.59
39681;BME280;26327;42.550;23.120;2023-06-19T14:02:40;92889.47;;;24.91;61.26
39681;BME280;26327;42.550;23.120;2023-06-19T14:05:07;92918.22;;;25.09;60.00
39681;BME280;26327;42.550;23.120;2023-06-19T14:07:33;92916.59;;;24.98;59.54
39681;BME280;26327;42.550;23.120;2023-06-19T14:10:00;92881.47;;;24.30;59.29
39681;BME280;26327;42.550;23.120;2023-06-19T14:12:27;92918.16;;;24.63;60.77
39681;BME280;26327;42.550;23.120;2023-06-19T14:14:52;92898.44;;;24.29;57.45
39681;BME280;26327;42.550;23.120;2023-06-19T14:17:18;92850.50;;;23.78;58.16
39681;BME280;26327;42.550;23.120;2023-06-19T14:19:43;92886.22;;;24.28;58.90
39681;BME280;26327;42.550;23.120;2023-06-19T14:22:09;92908.56;;;24.52;59.90
39681;BME280;26327;42.550;23.120;2023-06-19T14:24:34;92911.47;;;24.40;61.64
39681;BME280;26327;42.550;23.120;2023-06-19T14:26:59;92895.22;;;24.16;64.58
39681;BME280;26327;42.550;23.120;2023-06-19T14:29:25;92860.16;;;24.14;63.17
39681;BME280;26327;42.550;23.120;2023-06-19T14:31:51;92885.72;;;24.36;63.71
39681;BME280;26327;42.550;23.120;2023-06-19T14:34:19;92857.53;;;24.20;64.15
39681;BME280;26327;42.550;23.120;2023-06-19T14:36:44;92827.03;;;23.54;61.21
39681;BME280;26327;42.550;23.120;2023-06-19T14:39:09;92896.53;;;24.19;63.99
39681;BME280;26327;42.550;23.120;2023-06-19T14:41:36;92855.78;;;23.68;60.79
39681;BME280;26327;42.550;23.120;2023-06-19T14:44:02;92881.53;;;23.77;62.13
39681;BME280;26327;42.550;23.120;2023-06-19T14:46:28;92881.31;;;23.84;62.25
39681;BME280;26327;42.550;23.120;2023-06-19T14:48:53;92865.66;;;23.93;61.97
39681;BME280;26327;42.550;23.120;2023-06-19T14:51:18;92847.91;;;23.98;60.37
39681;BME280;26327;42.550;23.120;2023-06-19T14:53:44;92870.31;;;24.38;58.11
39681;BME280;26327;42.550;23.120;2023-06-19T14:56:09;92901.94;;;24.49;59.27
39681;BME280;26327;42.550;23.120;2023-06-19T14:58:35;92902.47;;;24.52;59.84
39681;BME280;26327;42.550;23.120;2023-06-19T15:01:00;92886.78;;;24.30;59.06
39681;BME280;26327;42.550;23.120;2023-06-19T15:03:25;92895.28;;;24.57;60.02
39681;BME280;26327;42.550;23.120;2023-06-19T15:05:51;92878.81;;;24.40;61.01
39681;BME280;26327;42.550;23.120;2023-06-19T15:08:16;92889.06;;;24.11;63.20
39681;BME280;26327;42.550;23.120;2023-06-19T15:10:47;92892.81;;;24.20;64.12
39681;BME280;26327;42.550;23.120;2023-06-19T15:13:13;92901.91;;;24.39;61.75
39681;BME280;26327;42.550;23.120;2023-06-19T15:15:41;92890.97;;;24.26;61.71
39681;BME280;26327;42.550;23.120;2023-06-19T15:18:06;92829.03;;;23.90;62.49
39681;BME280;26327;42.550;23.120;2023-06-19T15:20:32;92778.72;;;23.42;63.99
39681;BME280;26327;42.550;23.120;2023-06-19T15:22:57;92852.66;;;23.86;63.60
39681;BME280;26327;42.550;23.120;2023-06-19T15:25:23;92777.16;;;23.46;63.21
39681;BME280;26327;42.550;23.120;2023-06-19T15:27:48;92898.28;;;23.88;64.96
39681;BME280;26327;42.550;23.120;2023-06-19T15:30:13;92895.16;;;24.11;66.83
39681;BME280;26327;42.550;23.120;2023-06-19T15:32:39;92839.19;;;23.45;65.79
39681;BME280;26327;42.550;23.120;2023-06-19T15:35:05;92786.63;;;23.27;64.78
39681;BME280;26327;42.550;23.120;2023-06-19T15:37:30;92859.53;;;23.77;65.47
39681;BME280;26327;42.550;23.120;2023-06-19T15:39:59;92864.28;;;23.75;65.65
39681;BME280;26327;42.550;23.120;2023-06-19T15:42:26;92778.50;;;22.91;64.79
39681;BME280;26327;42.550;23.120;2023-06-19T15:44:51;92897.63;;;23.61;64.31
39681;BME280;26327;42.550;23.120;2023-06-19T15:47:17;92878.59;;;23.69;64.56
39681;BME280;26327;42.550;23.120;2023-06-19T15:49:43;92844.50;;;23.40;65.49
39681;BME280;26327;42.550;23.120;2023-06-19T15:52:08;92849.63;;;23.15;66.63
39681;BME280;26327;42.550;23.120;2023-06-19T15:54:34;92857.47;;;23.37;67.80
39681;BME280;26327;42.550;23.120;2023-06-19T15:56:59;92880.72;;;23.72;65.85
39681;BME280;26327;42.550;23.120;2023-06-19T15:59:25;92894.59;;;23.42;67.43
39681;BME280;26327;42.550;23.120;2023-06-19T16:01:50;92817.50;;;23.01;66.73
39681;BME280;26327;42.550;23.120;2023-06-19T16:04:15;92893.16;;;23.19;68.84
39681;BME280;26327;42.550;23.120;2023-06-19T16:06:41;92845.41;;;23.14;67.46
39681;BME280;26327;42.550;23.120;2023-06-19T16:09:07;92903.47;;;23.63;68.98
39681;BME280;26327;42.550;23.120;2023-06-19T16:11:32;92865.34;;;23.74;67.40
39681;BME280;26327;42.550;23.120;2023-06-19T16:13:58;92899.16;;;23.51;68.12
39681;BME280;26327;42.550;23.120;2023-06-19T16:16:24;92896.75;;;23.50;67.23
39681;BME280;26327;42.550;23.120;2023-06-19T16:18:50;92803.47;;;23.01;66.71
39681;BME280;26327;42.550;23.120;2023-06-19T16:21:15;92874.63;;;23.71;66.35
39681;BME280;26327;42.550;23.120;2023-06-19T16:23:42;92839.38;;;23.23;67.65
39681;BME280;26327;42.550;23.120;2023-06-19T16:26:07;92913.41;;;23.35;69.97
39681;BME280;26327;42.550;23.120;2023-06-19T16:28:32;92889.47;;;23.25;71.68
39681;BME280;26327;42.550;23.120;2023-06-19T16:30:58;92912.28;;;23.26;72.58
39681;BME280;26327;42.550;23.120;2023-06-19T16:33:23;92914.41;;;23.24;72.66
39681;BME280;26327;42.550;23.120;2023-06-19T16:35:49;92905.75;;;23.44;73.25
39681;BME280;26327;42.550;23.120;2023-06-19T16:38:15;92826.13;;;22.81;72.18
39681;BME280;26327;42.550;23.120;2023-06-19T16:40:40;92902.22;;;23.28;72.73
39681;BME280;26327;42.550;23.120;2023-06-19T16:43:05;92917.09;;;23.34;73.18
39681;BME280;26327;42.550;23.120;2023-06-19T16:45:31;92902.78;;;23.35;73.02
39681;BME280;26327;42.550;23.120;2023-06-19T16:47:57;92857.06;;;23.13;72.70
39681;BME280;26327;42.550;23.120;2023-06-19T16:50:23;92853.81;;;23.01;73.27
39681;BME280;26327;42.550;23.120;2023-06-19T16:52:48;92855.81;;;22.83;71.78
39681;BME280;26327;42.550;23.120;2023-06-19T16:55:14;92865.09;;;22.54;72.78
39681;BME280;26327;42.550;23.120;2023-06-19T16:57:39;92853.13;;;22.46;73.99
39681;BME280;26327;42.550;23.120;2023-06-19T17:00:06;92920.09;;;22.74;75.02
39681;BME280;26327;42.550;23.120;2023-06-19T17:02:32;92863.41;;;22.43;74.86
39681;BME280;26327;42.550;23.120;2023-06-19T17:04:58;92895.47;;;22.46;75.39
39681;BME280;26327;42.550;23.120;2023-06-19T17:07:23;92921.41;;;22.71;75.85
39681;BME280;26327;42.550;23.120;2023-06-19T17:09:49;92848.53;;;21.83;78.01
39681;BME280;26327;42.550;23.120;2023-06-19T17:12:14;92930.09;;;22.40;78.48
39681;BME280;26327;42.550;23.120;2023-06-19T17:14:41;92884.09;;;22.19;78.96
39681;BME280;26327;42.550;23.120;2023-06-19T17:17:07;92932.94;;;22.60;78.25
39681;BME280;26327;42.550;23.120;2023-06-19T17:19:32;92918.13;;;22.64;79.27
39681;BME280;26327;42.550;23.120;2023-06-19T17:21:58;92898.09;;;23.05;80.20
39681;BME280;26327;42.550;23.120;2023-06-19T17:24:23;92941.00;;;23.39;79.13
39681;BME280;26327;42.550;23.120;2023-06-19T17:26:48;92891.09;;;22.62;80.00
39681;BME280;26327;42.550;23.120;2023-06-19T17:29:16;92874.38;;;22.24;81.97
39681;BME280;26327;42.550;23.120;2023-06-19T17:31:42;92930.44;;;23.07;81.82
39681;BME280;26327;42.550;23.120;2023-06-19T17:34:07;92907.03;;;22.67;82.54
39681;BME280;26327;42.550;23.120;2023-06-19T17:36:32;92905.38;;;22.88;82.34
39681;BME280;26327;42.550;23.120;2023-06-19T17:38:58;92949.81;;;23.13;82.40
39681;BME280;26327;42.550;23.120;2023-06-19T17:41:25;92944.41;;;22.98;83.53
39681;BME280;26327;42.550;23.120;2023-06-19T17:43:50;92929.44;;;22.81;82.55
39681;BME280;26327;42.550;23.120;2023-06-19T17:46:16;92947.66;;;22.78;83.33
39681;BME280;26327;42.550;23.120;2023-06-19T17:48:41;92959.72;;;22.37;84.40
39681;BME280;26327;42.550;23.120;2023-06-19T17:51:07;92898.06;;;21.71;88.71
39681;BME280;26327;42.550;23.120;2023-06-19T17:53:32;92955.94;;;22.06;86.35
39681;BME280;26327;42.550;23.120;2023-06-19T17:55:59;92901.66;;;21.59;86.91
39681;BME280;26327;42.550;23.120;2023-06-19T17:58:29;92952.19;;;21.63;91.24
39681;BME280;26327;42.550;23.120;2023-06-19T18:00:54;92970.13;;;21.05;96.28
39681;BME280;26327;42.550;23.120;2023-06-19T18:03:19;92960.50;;;21.16;95.46
39681;BME280;26327;42.550;23.120;2023-06-19T18:05:45;92903.94;;;20.95;95.29
39681;BME280;26327;42.550;23.120;2023-06-19T18:08:10;92976.59;;;21.15;98.05
39681;BME280;26327;42.550;23.120;2023-06-19T18:10:35;92912.31;;;20.59;97.17
39681;BME280;26327;42.550;23.120;2023-06-19T18:13:01;92953.84;;;20.80;96.51
39681;BME280;26327;42.550;23.120;2023-06-19T18:15:27;92989.19;;;20.46;99.05
39681;BME280;26327;42.550;23.120;2023-06-19T18:17:53;92957.00;;;20.20;99.39
39681;BME280;26327;42.550;23.120;2023-06-19T18:20:18;92887.69;;;20.53;98.14
39681;BME280;26327;42.550;23.120;2023-06-19T18:22:44;92927.28;;;21.03;96.25
39681;BME280;26327;42.550;23.120;2023-06-19T18:25:09;92901.84;;;20.47;96.40
39681;BME280;26327;42.550;23.120;2023-06-19T18:27:34;92957.00;;;20.20;98.78
39681;BME280;26327;42.550;23.120;2023-06-19T18:30:00;92870.44;;;19.60;99.27
39681;BME280;26327;42.550;23.120;2023-06-19T18:32:25;92905.75;;;19.36;100.00
39681;BME280;26327;42.550;23.120;2023-06-19T18:34:51;93009.19;;;19.78;100.00
39681;BME280;26327;42.550;23.120;2023-06-19T18:37:16;92980.59;;;19.98;100.00
39681;BME280;26327;42.550;23.120;2023-06-19T18:39:41;92936.50;;;19.82;100.00
39681;BME280;26327;42.550;23.120;2023-06-19T18:42:07;92996.66;;;19.97;100.00
39681;BME280;26327;42.550;23.120;2023-06-19T18:44:32;92988.28;;;20.28;100.00
39681;BME280;26327;42.550;23.120;2023-06-19T18:46:58;92961.19;;;20.04;99.91
39681;BME280;26327;42.550;23.120;2023-06-19T18:49:23;93012.13;;;20.05;100.00
39681;BME280;26327;42.550;23.120;2023-06-19T18:51:49;92977.81;;;19.65;100.00
39681;BME280;26327;42.550;23.120;2023-06-19T18:54:14;93008.69;;;20.33;98.70
39681;BME280;26327;42.550;23.120;2023-06-19T18:56:40;92955.75;;;19.94;98.40
39681;BME280;26327;42.550;23.120;2023-06-19T18:59:05;93015.69;;;19.99;100.00
39681;BME280;26327;42.550;23.120;2023-06-19T19:01:30;93019.94;;;20.00;100.00
39681;BME280;26327;42.550;23.120;2023-06-19T19:03:56;92958.34;;;19.54;100.00